sensor_id;sensor_type;location;lat;lon;timestamp;temperature;humidity
25811;DHT22;13645;52.460;13.910;2023-06-04T17:09:46;25.00;99.90
25811;DHT22;13645;52.460;13.910;2023-06-04T17:12:14;24.50;99.90
25811;DHT22;13645;52.460;13.910;2023-06-04T17:14:41;24.40;99.90
25811;DHT22;13645;52.460;13.910;2023-06-04T17:17:08;24.20;99.90
25811;DHT22;13645;52.460;13.910;2023-06-04T17:19:36;24.20;99.90
25811;DHT22;13645;52.460;13.910;2023-06-04T17:22:03;24.10;99.90
25811;DHT22;13645;52.460;13.910;2023-06-04T17:24:29;24.00;99.90
25811;DHT22;13645;52.460;13.910;2023-06-04T17:26:56;23.90;99.90
25811;DHT22;13645;52.460;13.910;2023-06-04T17:29:23;23.80;1.00
25811;DHT22;13645;52.460;13.910;2023-06-04T17:31:50;23.70;1.00
25811;DHT22;13645;52.460;13.910;2023-06-04T17:34:18;23.60;1.00
25811;DHT22;13645;52.460;13.910;2023-06-04T17:36:45;23.50;1.00
25811;DHT22;13645;52.460;13.910;2023-06-04T17:39:11;23.40;1.00
25811;DHT22;13645;52.460;13.910;2023-06-04T17:41:38;23.30;1.00
25811;DHT22;13645;52.460;13.910;2023-06-04T17:44:05;23.20;1.00
25811;DHT22;13645;52.460;13.910;2023-06-04T17:46:32;23.00;1.00
25811;DHT22;13645;52.460;13.910;2023-06-04T17:48:59;22.90;1.00
25811;DHT22;13645;52.460;13.910;2023-06-04T17:51:25;22.70;1.00
25811;DHT22;13645;52.460;13.910;2023-06-04T17:53:52;22.60;1.00
25811;DHT22;13645;52.460;13.910;2023-06-04T17:56:19;22.50;1.00
25811;DHT22;13645;52.460;13.910;2023-06-04T17:58:47;22.40;1.00
25811;DHT22;13645;52.460;13.910;2023-06-04T18:01:14;22.40;1.00
25811;DHT22;13645;52.460;13.910;2023-06-04T18:03:41;22.30;1.00
25811;DHT22;13645;52.460;13.910;2023-06-04T18:06:08;22.20;1.00
25811;DHT22;13645;52.460;13.910;2023-06-04T18:08:35;22.10;1.00
25811;DHT22;13645;52.460;13.910;2023-06-04T18:11:01;22.00;1.00
25811;DHT22;13645;52.460;13.910;2023-06-04T18:13:28;21.80;1.00
25811;DHT22;13645;52.460;13.910;2023-06-04T18:15:55;21.80;1.00
25811;DHT22;13645;52.460;13.910;2023-06-04T18:18:22;21.60;1.00
25811;DHT22;13645;52.460;13.910;2023-06-04T18:20:50;21.50;1.00
25811;DHT22;13645;52.460;13.910;2023-06-04T18:23:16;21.40;1.00
25811;DHT22;13645;52.460;13.910;2023-06-04T18:25:43;21.20;1.00
25811;DHT22;13645;52.460;13.910;2023-06-04T18:28:10;21.20;1.00
25811;DHT22;13645;52.460;13.910;2023-06-04T18:30:37;21.00;1.00
25811;DHT22;13645;52.460;13.910;2023-06-04T18:33:04;20.90;1.00
25811;DHT22;13645;52.460;13.910;2023-06-04T18:35:31;20.80;1.00
25811;DHT22;13645;52.460;13.910;2023-06-04T18:37:58;20.70;1.00
25811;DHT22;13645;52.460;13.910;2023-06-04T18:40:26;20.70;1.00
25811;DHT22;13645;52.460;13.910;2023-06-04T18:42:52;20.50;1.00
25811;DHT22;13645;52.460;13.910;2023-06-04T18:45:19;20.40;1.00
25811;DHT22;13645;52.460;13.910;2023-06-04T18:47:46;20.30;1.00
25811;DHT22;13645;52.460;13.910;2023-06-04T18:50:14;20.20;1.00
25811;DHT22;13645;52.460;13.910;2023-06-04T18:52:41;20.10;1.00
25811;DHT22;13645;52.460;13.910;2023-06-04T18:55:09;19.90;1.00
25811;DHT22;13645;52.460;13.910;2023-06-04T18:57:36;19.80;1.00
25811;DHT22;13645;52.460;13.910;2023-06-04T19:00:04;19.70;1.00
25811;DHT22;13645;52.460;13.910;2023-06-04T19:02:38;19.70;1.00
25811;DHT22;13645;52.460;13.910;2023-06-04T19:05:06;19.50;1.00
25811;DHT22;13645;52.460;13.910;2023-06-04T19:07:37;19.40;1.00
25811;DHT22;13645;52.460;13.910;2023-06-04T19:10:04;19.30;23.20
25811;DHT22;13645;52.460;13.910;2023-06-04T19:12:31;19.20;99.20
25811;DHT22;13645;52.460;13.910;2023-06-04T19:14:58;19.10;99.90
25811;DHT22;13645;52.460;13.910;2023-06-04T19:17:25;18.90;99.90
25811;DHT22;13645;52.460;13.910;2023-06-04T19:19:55;18.80;99.90
25811;DHT22;13645;52.460;13.910;2023-06-04T19:22:22;18.70;99.90
25811;DHT22;13645;52.460;13.910;2023-06-04T19:24:49;18.70;99.90
25811;DHT22;13645;52.460;13.910;2023-06-04T19:27:16;18.50;99.90
25811;DHT22;13645;52.460;13.910;2023-06-04T19:29:44;18.50;99.90
25811;DHT22;13645;52.460;13.910;2023-06-04T19:32:12;18.40;99.90
25811;DHT22;13645;52.460;13.910;2023-06-04T19:34:39;18.30;1.00
25811;DHT22;13645;52.460;13.910;2023-06-04T19:37:06;18.20;1.00
25811;DHT22;13645;52.460;13.910;2023-06-04T19:39:32;18.10;43.50
25811;DHT22;13645;52.460;13.910;2023-06-04T19:41:59;18.00;99.90
25811;DHT22;13645;52.460;13.910;2023-06-04T19:44:26;17.80;99.90
25811;DHT22;13645;52.460;13.910;2023-06-04T19:46:53;17.70;1.00
25811;DHT22;13645;52.460;13.910;2023-06-04T19:49:20;17.60;77.30
25811;DHT22;13645;52.460;13.910;2023-06-04T19:51:47;17.50;99.90
25811;DHT22;13645;52.460;13.910;2023-06-04T19:54:14;17.40;1.00
25811;DHT22;13645;52.460;13.910;2023-06-04T19:56:41;17.30;99.90
25811;DHT22;13645;52.460;13.910;2023-06-04T19:59:08;17.20;99.90
25811;DHT22;13645;52.460;13.910;2023-06-04T20:01:35;17.10;1.00
25811;DHT22;13645;52.460;13.910;2023-06-04T20:04:02;17.00;1.00
25811;DHT22;13645;52.460;13.910;2023-06-04T20:06:29;16.90;99.90
25811;DHT22;13645;52.460;13.910;2023-06-04T20:08:56;16.90;28.30
25811;DHT22;13645;52.460;13.910;2023-06-04T20:11:23;16.80;99.90
25811;DHT22;13645;52.460;13.910;2023-06-04T20:13:50;16.70;1.00
25811;DHT22;13645;52.460;13.910;2023-06-04T20:16:17;16.60;99.90
25811;DHT22;13645;52.460;13.910;2023-06-04T20:18:43;16.60;1.00
25811;DHT22;13645;52.460;13.910;2023-06-04T20:21:10;16.50;99.90
25811;DHT22;13645;52.460;13.910;2023-06-04T20:23:37;16.40;99.90
25811;DHT22;13645;52.460;13.910;2023-06-04T20:26:04;16.30;99.90
25811;DHT22;13645;52.460;13.910;2023-06-04T20:28:31;16.30;99.90
25811;DHT22;13645;52.460;13.910;2023-06-04T20:30:57;16.20;1.00
25811;DHT22;13645;52.460;13.910;2023-06-04T20:33:24;16.10;1.00
25811;DHT22;13645;52.460;13.910;2023-06-04T20:35:54;16.10;1.00
25811;DHT22;13645;52.460;13.910;2023-06-04T20:38:21;16.00;1.00
25811;DHT22;13645;52.460;13.910;2023-06-04T20:40:48;16.00;99.90
25811;DHT22;13645;52.460;13.910;2023-06-04T20:43:14;15.90;1.00
25811;DHT22;13645;52.460;13.910;2023-06-04T20:45:42;15.80;1.00
25811;DHT22;13645;52.460;13.910;2023-06-04T20:48:09;15.80;99.90
25811;DHT22;13645;52.460;13.910;2023-06-04T20:50:36;15.70;99.90
25811;DHT22;13645;52.460;13.910;2023-06-04T20:53:02;15.70;99.90
25811;DHT22;13645;52.460;13.910;2023-06-04T20:55:29;15.60;99.90
25811;DHT22;13645;52.460;13.910;2023-06-04T20:57:56;15.60;99.90
25811;DHT22;13645;52.460;13.910;2023-06-04T21:00:23;15.60;99.90
25811;DHT22;13645;52.460;13.910;2023-06-04T21:02:52;15.50;99.90
25811;DHT22;13645;52.460;13.910;2023-06-04T21:05:19;15.50;1.00
25811;DHT22;13645;52.460;13.910;2023-06-04T21:07:45;15.40;1.00
25811;DHT22;13645;52.460;13.910;2023-06-04T21:10:12;15.30;99.90
25811;DHT22;13645;52.460;13.910;2023-06-04T21:12:41;15.30;99.90
25811;DHT22;13645;52.460;13.910;2023-06-04T21:15:08;15.20;1.00
25811;DHT22;13645;52.460;13.910;2023-06-04T21:17:35;15.20;99.90
25811;DHT22;13645;52.460;13.910;2023-06-04T21:20:02;15.10;97.80
25811;DHT22;13645;52.460;13.910;2023-06-04T21:22:29;15.10;99.90
25811;DHT22;13645;52.460;13.910;2023-06-04T21:24:55;15.10;1.00
25811;DHT22;13645;52.460;13.910;2023-06-04T21:27:22;15.00;1.00
25811;DHT22;13645;52.460;13.910;2023-06-04T21:29:49;15.00;1.00
25811;DHT22;13645;52.460;13.910;2023-06-04T21:32:16;14.90;25.20
25811;DHT22;13645;52.460;13.910;2023-06-04T21:34:43;14.80;66.20
25811;DHT22;13645;52.460;13.910;2023-06-04T21:37:09;14.70;99.90
25811;DHT22;13645;52.460;13.910;2023-06-04T21:39:36;14.60;99.90
25811;DHT22;13645;52.460;13.910;2023-06-04T21:42:03;14.60;99.90
25811;DHT22;13645;52.460;13.910;2023-06-04T21:44:30;14.40;99.90
25811;DHT22;13645;52.460;13.910;2023-06-04T21:46:57;14.30;99.90
25811;DHT22;13645;52.460;13.910;2023-06-04T21:49:24;14.20;99.90
25811;DHT22;13645;52.460;13.910;2023-06-04T21:51:51;14.20;99.90
25811;DHT22;13645;52.460;13.910;2023-06-04T21:54:17;14.10;99.90
25811;DHT22;13645;52.460;13.910;2023-06-04T21:56:48;14.00;99.90
25811;DHT22;13645;52.460;13.910;2023-06-04T21:59:14;14.00;99.90
25811;DHT22;13645;52.460;13.910;2023-06-04T22:01:41;13.90;99.90
25811;DHT22;13645;52.460;13.910;2023-06-04T22:04:08;13.90;99.90
25811;DHT22;13645;52.460;13.910;2023-06-04T22:06:35;13.90;99.90
25811;DHT22;13645;52.460;13.910;2023-06-04T22:09:02;13.80;99.90
25811;DHT22;13645;52.460;13.910;2023-06-04T22:11:29;13.70;99.90
25811;DHT22;13645;52.460;13.910;2023-06-04T22:13:56;13.70;99.90
25811;DHT22;13645;52.460;13.910;2023-06-04T22:16:23;13.60;99.90
25811;DHT22;13645;52.460;13.910;2023-06-04T22:18:49;13.60;99.90
25811;DHT22;13645;52.460;13.910;2023-06-04T22:21:19;13.50;99.90
25811;DHT22;13645;52.460;13.910;2023-06-04T22:23:46;13.50;99.90
25811;DHT22;13645;52.460;13.910;2023-06-04T22:26:13;13.40;99.90
25811;DHT22;13645;52.460;13.910;2023-06-04T22:29:00;13.40;99.90
25811;DHT22;13645;52.460;13.910;2023-06-04T22:31:27;13.30;1.00
25811;DHT22;13645;52.460;13.910;2023-06-04T22:33:54;13.30;1.00
25811;DHT22;13645;52.460;13.910;2023-06-04T22:36:21;13.30;1.00
25811;DHT22;13645;52.460;13.910;2023-06-04T22:38:47;13.30;1.00
25811;DHT22;13645;52.460;13.910;2023-06-04T22:41:14;13.20;1.00
25811;DHT22;13645;52.460;13.910;2023-06-04T22:43:41;13.10;1.00
25811;DHT22;13645;52.460;13.910;2023-06-04T22:46:08;13.00;1.00
25811;DHT22;13645;52.460;13.910;2023-06-04T22:48:35;13.00;1.00
25811;DHT22;13645;52.460;13.910;2023-06-04T22:51:01;13.00;1.00
25811;DHT22;13645;52.460;13.910;2023-06-04T22:53:31;12.90;1.00
25811;DHT22;13645;52.460;13.910;2023-06-04T22:55:58;12.90;1.00
25811;DHT22;13645;52.460;13.910;2023-06-04T22:58:25;12.80;1.00
25811;DHT22;13645;52.460;13.910;2023-06-04T23:00:52;12.70;1.00
25811;DHT22;13645;52.460;13.910;2023-06-04T23:03:19;12.60;1.00
25811;DHT22;13645;52.460;13.910;2023-06-04T23:05:46;12.50;1.00
25811;DHT22;13645;52.460;13.910;2023-06-04T23:08:13;12.30;1.00
25811;DHT22;13645;52.460;13.910;2023-06-04T23:10:40;12.20;1.00
25811;DHT22;13645;52.460;13.910;2023-06-04T23:13:07;12.10;1.00
25811;DHT22;13645;52.460;13.910;2023-06-04T23:15:34;12.00;1.00
25811;DHT22;13645;52.460;13.910;2023-06-04T23:18:01;11.90;1.00
25811;DHT22;13645;52.460;13.910;2023-06-04T23:20:27;11.80;1.00
25811;DHT22;13645;52.460;13.910;2023-06-04T23:22:54;11.80;1.00
25811;DHT22;13645;52.460;13.910;2023-06-04T23:25:21;11.80;1.00
25811;DHT22;13645;52.460;13.910;2023-06-04T23:27:48;11.80;1.00
25811;DHT22;13645;52.460;13.910;2023-06-04T23:30:15;11.90;1.00
25811;DHT22;13645;52.460;13.910;2023-06-04T23:32:44;11.90;1.00
25811;DHT22;13645;52.460;13.910;2023-06-04T23:35:10;11.90;1.00
25811;DHT22;13645;52.460;13.910;2023-06-04T23:37:37;11.80;1.00
25811;DHT22;13645;52.460;13.910;2023-06-04T23:40:05;11.80;1.00
25811;DHT22;13645;52.460;13.910;2023-06-04T23:42:33;11.80;1.00
25811;DHT22;13645;52.460;13.910;2023-06-04T23:44:59;11.80;1.00
25811;DHT22;13645;52.460;13.910;2023-06-04T23:47:26;11.90;1.00
25811;DHT22;13645;52.460;13.910;2023-06-04T23:49:53;11.80;1.00
25811;DHT22;13645;52.460;13.910;2023-06-04T23:52:20;11.80;1.00
25811;DHT22;13645;52.460;13.910;2023-06-04T23:54:47;11.70;1.00
25811;DHT22;13645;52.460;13.910;2023-06-04T23:57:14;11.70;1.00
25811;DHT22;13645;52.460;13.910;2023-06-04T23:59:41;11.70;1.00
